TAF

Aerodrome Forecast TAF

TAF description (Slovak)

27.08.2016 - 11:00 UTC

TAF LZSL 271100Z 2712/2721 VRB02KT CAVOK
    TEMPO 2712/2716 16006KT 9999 FEW040=
TAF LZPP 271100Z 2712/2721 15006KT CAVOK
    TEMPO 2712/2715 16012KT=
TAF LZZI 271100Z 2712/2721 24005KT CAVOK
    BECMG 2716/2718 VRB02KT=

27.08.2016 - 11:00 UTC

TAF LZIB 271100Z 2712/2812 14010KT CAVOK
    TEMPO 2712/2716 15015KT 9999 FEW045
    BECMG 2718/2720 11007KT
    BECMG 2810/2812 16012KT=
TAF LZKZ 271100Z 2712/2812 24005KT CAVOK
    BECMG 2718/2720 VRB02KT
    PROB30 TEMPO 2802/2806 5000 MIFG NSC
    BECMG 2806/2808 22006KT=
TAF LZTT 271100Z 2712/2812 14006KT CAVOK
    BECMG 2717/2719 25004KT
    PROB40 TEMPO 2802/2805 VRB02KT 2000 BCFG FEW002
    BECMG 2808/2810 15007KT=

27.08.2016 - 11:00 UTC

TAF LZSL 271100Z 2712/2721 VRB02KT CAVOK
    TEMPO 2712/2716 16006KT 9999 FEW040=
TAF LZPP 271100Z 2712/2721 15006KT CAVOK
    TEMPO 2712/2715 16012KT=
TAF LZZI 271100Z 2712/2721 24005KT CAVOK
    BECMG 2716/2718 VRB02KT=

27.08.2016 - 08:00 UTC

TAF LZSL 270800Z 2709/2718 VRB02KT CAVOK
    TEMPO 2709/2716 16006KT=
TAF LZPP 270800Z 2709/2718 15006KT CAVOK
    TEMPO 2709/2715 16012KT=
TAF LZZI 270800Z 2709/2718 24005KT CAVOK
    BECMG 2716/2718 VRB02KT=

27.08.2016 - 08:00 UTC

TAF LZSL 270800Z 2709/2718 VRB02KT CAVOK
    TEMPO 2709/2716 16006KT=
TAF LZPP 270800Z 2709/2718 15006KT CAVOK
    TEMPO 2709/2715 16012KT=
TAF LZZI 270800Z 2709/2718 24005KT CAVOK
    BECMG 2716/2718 VRB02KT=

27.08.2016 - 05:00 UTC

TAF LZSL 270500Z 2706/2715 VRB02KT 2000 BCFG FEW004
    TEMPO 2704/2707 0400 FG BKN002
    BECMG 2707/2709 CAVOK=
TAF LZPP 270500Z 2706/2715 13005KT CAVOK=
TAF LZZI 270500Z 2706/2715 VRB02KT CAVOK
    BECMG 2707/2709 22004KT=

27.08.2016 - 05:00 UTC

TAF LZSL 270500Z 2706/2715 VRB02KT 2000 BCFG FEW004
    TEMPO 2704/2707 0400 FG BKN002
    BECMG 2707/2709 CAVOK=
TAF LZPP 270500Z 2706/2715 13005KT CAVOK=
TAF LZZI 270500Z 2706/2715 VRB02KT CAVOK
    BECMG 2707/2709 22004KT=

27.08.2016 - 05:00 UTC

TAF LZIB 270500Z 2706/2806 03004KT CAVOK
    BECMG 2707/2709 14008KT
    TEMPO 2710/2716 15015KT=
TAF LZKZ 270500Z 2706/2806 VRB02KT CAVOK=
TAF LZTT 270500Z 2706/2806 27004KT CAVOK
    BECMG 2708/2710 13006KT
    BECMG 2717/2719 25004KT=

27.08.2016 - 02:00 UTC

TAF AMD LZSL 270410Z 2704/2712 VRB02KT 2000 BCFG FEW004
    TEMPO 2704/2707 0400 FG BKN002
    BECMG 2707/2709 CAVOK=

27.08.2016 - 02:00 UTC

TAF LZSL 270200Z 2703/2712 VRB02KT CAVOK=
TAF LZZI 270200Z 2703/2712 VRB02KT CAVOK
    PROB30 TEMPO 2703/2706 5000 BR FEW001=

27.08.2016 - 02:00 UTC

TAF LZSL 270200Z 2703/2712 VRB02KT CAVOK=
TAF LZZI 270200Z 2703/2712 VRB02KT CAVOK
    PROB30 TEMPO 2703/2706 5000 BR FEW001=

skok na menu ↑


skok na začiatok stránky ↑